BBC Nile — V2FI3 — position and weather

sailwx.info

Track history (hours):
 
Tides and Currents Weather Stations Pressure Air Temp Water Temp Dewpoint Dewpoint Depression Visibility Wind Speed Wind Dir Waves Ship Positions

BBC Nile

Last reported at 2017-Oct-26 02:54 UTC. Time now 2017-Dec-14 06:30 UTC.
Position N 16°52' W 021°21'.
Warning: this ship's position is 49 days out of date.

Length 143 m; draft 8.1 m.

Type: Ship. MMSI: 305682000.

Date/timePositionNaut miles runAvg speedWind from/ knotsBaromVisibWave heightAir tempDewpointWater temp
2017-Oct-26 02:54N 16°52' W 021°21'513.3
2017-Oct-26 02:29N 16°57' W 021°19'713.2
2017-Oct-26 01:59N 17°03' W 021°15'613.2
2017-Oct-26 01:29N 17°09' W 021°12'913.0
2017-Oct-26 00:48N 17°17' W 021°08'413.0
2017-Oct-26 00:29N 17°20' W 021°06'712.9
2017-Oct-25 23:58N 17°26' W 021°03'613.2
2017-Oct-25 23:30N 17°32' W 021°00'713.3
2017-Oct-25 22:59N 17°38' W 020°57'713.2
2017-Oct-25 22:29N 17°44' W 020°54'713.2
2017-Oct-25 21:58N 17°50' W 020°51'613.5
2017-Oct-25 21:30N 17°56' W 020°48'713.6
2017-Oct-25 21:00N 18°02' W 020°44'713.6
2017-Oct-25 20:29N 18°08' W 020°41'713.8
2017-Oct-25 20:00N 18°14' W 020°38'713.6
2017-Oct-25 19:30N 18°20' W 020°35'713.8
2017-Oct-25 18:59N 18°26' W 020°31'713.8
2017-Oct-25 18:30N 18°32' W 020°28'713.7
2017-Oct-25 17:58N 18°39' W 020°25'1013.6
2017-Oct-25 17:12N 18°48' W 020°20'313.6
2017-Oct-25 16:59N 18°51' W 020°19'713.7
2017-Oct-25 16:29N 18°57' W 020°15'713.6
2017-Oct-25 15:59N 19°03' W 020°12'613.6
2017-Oct-25 15:30N 19°09' W 020°09'713.3
2017-Oct-25 15:00N 19°15' W 020°06'713.2
2017-Oct-25 14:29N 19°21' W 020°02'613.3
2017-Oct-25 14:00N 19°26' W 019°59'713.3
2017-Oct-25 13:29N 19°33' W 019°56'713.5
2017-Oct-25 12:59N 19°39' W 019°53'713.5
2017-Oct-25 12:29N 19°44' W 019°49'613.3
2017-Oct-25 12:00N 19°50' W 019°46'713.3
2017-Oct-25 11:28N 19°57' W 019°43'613.5
2017-Oct-25 11:00N 20°02' W 019°40'713.5
2017-Oct-25 10:29N 20°09' W 019°37'713.6
2017-Oct-25 09:59N 20°15' W 019°33'713.7
2017-Oct-25 09:30N 20°20' W 019°30'713.5
2017-Oct-25 08:59N 20°27' W 019°27'713.9
2017-Oct-25 08:30N 20°33' W 019°23'714.1
2017-Oct-25 08:00N 20°39' W 019°20'35413.6
2017-Oct-24 05:59N 25°53' W 016°21'913.9
2017-Oct-24 05:19N 26°01' W 016°16'514.3
2017-Oct-24 04:57N 26°06' W 016°13'814.5
2017-Oct-24 04:26N 26°12' W 016°09'814.6
2017-Oct-24 03:53N 26°19' W 016°05'814.6
2017-Oct-24 03:21N 26°26' W 016°01'814.7
2017-Oct-24 02:50N 26°33' W 015°57'514.7
2017-Oct-24 02:30N 26°37' W 015°54'814.2
2017-Oct-24 01:56N 26°44' W 015°50'614.1
2017-Oct-24 01:29N 26°50' W 015°47'714.1
2017-Oct-24 00:59N 26°56' W 015°43'714.1
2017-Oct-24 00:28N 27°02' W 015°39'814.2
2017-Oct-23 23:53N 27°10' W 015°35'614.0
2017-Oct-23 23:26N 27°15' W 015°31'714.1
2017-Oct-23 22:58N 27°21' W 015°27'2114.0
2017-Oct-23 21:28N 27°39' W 015°16'714.7
2017-Oct-23 21:00N 27°46' W 015°13'714.3
2017-Oct-23 20:30N 27°52' W 015°10'713.6
2017-Oct-23 20:00N 27°59' W 015°13'713.6
2017-Oct-23 19:31N 28°05' W 015°17'612.3
2017-Oct-23 19:00N 28°09' W 015°22'2 3.0
2017-Oct-23 18:20N 28°09' W 015°24'0 0.1
2017-Oct-23 17:50N 28°09' W 015°24'0 0.0
2017-Oct-23 17:23N 28°09' W 015°24'0 0.0
2017-Oct-23 16:53N 28°09' W 015°24'0 0.0
2017-Oct-23 16:20N 28°09' W 015°24'0 0.1
2017-Oct-23 15:53N 28°09' W 015°24'0 0.0
2017-Oct-23 15:23N 28°09' W 015°24'0 0.0
2017-Oct-23 14:53N 28°09' W 015°24'0 0.0
2017-Oct-23 14:26N 28°09' W 015°24'0 0.0
2017-Oct-23 13:56N 28°09' W 015°24'0 0.0
2017-Oct-23 13:26N 28°09' W 015°24'0 0.0
2017-Oct-23 12:56N 28°09' W 015°24'0 0.0
2017-Oct-23 12:26N 28°09' W 015°24'0 0.0
2017-Oct-23 11:59N 28°09' W 015°24'0 0.0
2017-Oct-23 11:29N 28°09' W 015°24'0 0.0
2017-Oct-23 10:59N 28°09' W 015°24'0 0.0
2017-Oct-23 10:29N 28°09' W 015°24'0 0.0
2017-Oct-23 09:59N 28°09' W 015°24'0 0.0
2017-Oct-23 09:26N 28°09' W 015°24'0 0.0
2017-Oct-23 08:59N 28°09' W 015°24'0 0.0
2017-Oct-23 08:29N 28°09' W 015°24'0 0.0
2017-Oct-23 07:59N 28°09' W 015°24'0 0.0
2017-Oct-23 07:29N 28°09' W 015°24'0 0.0
2017-Oct-23 06:59N 28°09' W 015°24'0 0.0
2017-Oct-23 06:29N 28°09' W 015°24'0 0.0
2017-Oct-23 05:59N 28°09' W 015°24'0 0.0
2017-Oct-23 05:29N 28°09' W 015°24'0 0.0
2017-Oct-23 04:50N 28°09' W 015°24'0 0.0
2017-Oct-23 04:20N 28°09' W 015°24'0 0.0
2017-Oct-23 03:50N 28°09' W 015°24'0 0.0
2017-Oct-23 03:23N 28°09' W 015°24'0 0.0
2017-Oct-23 02:53N 28°09' W 015°24'0 0.0
2017-Oct-23 02:23N 28°09' W 015°24'0 0.0
2017-Oct-23 01:53N 28°09' W 015°24'0 0.0
2017-Oct-23 01:23N 28°09' W 015°24'0 0.0
2017-Oct-23 00:41N 28°09' W 015°24'0 0.0
2017-Oct-23 00:26N 28°09' W 015°24'0 0.0
2017-Oct-22 23:56N 28°09' W 015°24'0 0.0
2017-Oct-22 23:26N 28°09' W 015°24'0 0.0
2017-Oct-22 22:56N 28°09' W 015°24'0 0.0
2017-Oct-22 22:26N 28°09' W 015°24'0 0.0
2017-Oct-22 21:59N 28°09' W 015°24'0 0.0
2017-Oct-22 21:29N 28°09' W 015°24'0 0.0
2017-Oct-22 20:59N 28°09' W 015°24'0 0.0
2017-Oct-22 20:29N 28°09' W 015°24'0 0.0
2017-Oct-22 19:59N 28°09' W 015°24'0 0.0
2017-Oct-22 19:29N 28°09' W 015°24'0 0.6
2017-Oct-22 19:00N 28°09' W 015°24'3 5.1
2017-Oct-22 18:30N 28°10' W 015°21'713.4
2017-Oct-22 18:00N 28°15' W 015°17'713.5
2017-Oct-22 17:30N 28°21' W 015°12'713.1
2017-Oct-22 17:00N 28°26' W 015°08'612.7
2017-Oct-22 16:30N 28°31' W 015°04'612.6
2017-Oct-22 16:00N 28°37' W 015°00'613.0
2017-Oct-22 15:31N 28°42' W 014°56'713.1
2017-Oct-22 15:00N 28°47' W 014°52'  
2017-Oct-19 06:32N 43°48' W 006°28'413.4
2017-Oct-19 06:16N 43°48' W 006°23'413.5
2017-Oct-19 05:59N 43°48' W 006°18'713.7
2017-Oct-19 05:30N 43°47' W 006°09'713.7
2017-Oct-19 05:00N 43°46' W 005°59'713.8
2017-Oct-19 04:29N 43°45' W 005°49'713.9
2017-Oct-19 04:00N 43°45' W 005°40'713.7
2017-Oct-19 03:31N 43°44' W 005°31'713.1
2017-Oct-19 03:00N 43°44' W 005°22'713.4
2017-Oct-19 02:30N 43°43' W 005°13'813.2
2017-Oct-19 01:56N 43°42' W 005°02'613.0
2017-Oct-19 01:29N 43°41' W 004°54'2712.8
2017-Oct-18 23:22N 43°38' W 004°17'513.2
2017-Oct-18 23:01N 43°37' W 004°10'713.7
2017-Oct-18 22:31N 43°36' W 004°01'713.8
2017-Oct-18 22:00N 43°36' W 003°51'713.4
2017-Oct-18 21:30N 43°35' W 003°42'713.6
2017-Oct-18 21:00N 43°34' W 003°33'713.6
2017-Oct-18 20:30N 43°33' W 003°24'713.2
2017-Oct-18 20:00N 43°30' W 003°16'713.0
2017-Oct-18 19:30N 43°26' W 003°08'611.1
2017-Oct-18 19:00N 43°22' W 003°03'1 2.0
2017-Oct-18 18:30N 43°21' W 003°04'0 0.0
2017-Oct-18 18:00N 43°21' W 003°04'0 0.0
2017-Oct-18 17:30N 43°21' W 003°04'0 0.0
2017-Oct-18 17:00N 43°21' W 003°04'0 0.0
2017-Oct-18 16:30N 43°21' W 003°04'0 0.0
2017-Oct-18 16:00N 43°21' W 003°04'0 0.0
2017-Oct-18 15:30N 43°21' W 003°04'0 0.0
2017-Oct-18 15:00N 43°21' W 003°04'0 0.0
2017-Oct-18 14:00N 43°21' W 003°04'0 0.0
2017-Oct-18 13:30N 43°21' W 003°04'0 0.0
2017-Oct-18 13:00N 43°21' W 003°04'0 0.0
2017-Oct-18 12:30N 43°21' W 003°04'0 0.0
2017-Oct-18 12:00N 43°21' W 003°04'0 0.0
2017-Oct-18 11:30N 43°21' W 003°04'0 0.0
2017-Oct-18 11:00N 43°21' W 003°04'0 0.0
2017-Oct-18 10:30N 43°21' W 003°04'0 0.0
2017-Oct-18 10:00N 43°21' W 003°04'0 0.0
2017-Oct-18 09:30N 43°21' W 003°04'0 0.0
2017-Oct-18 09:00N 43°21' W 003°04'0 0.0
2017-Oct-18 08:30N 43°21' W 003°04'0 0.0
2017-Oct-18 08:00N 43°21' W 003°04'0 0.0
2017-Oct-18 07:30N 43°21' W 003°04'0 0.0
2017-Oct-18 07:00N 43°21' W 003°04'0 0.0
2017-Oct-18 06:30N 43°21' W 003°04'0 0.0
2017-Oct-18 06:00N 43°21' W 003°04'0 0.0
2017-Oct-18 05:30N 43°21' W 003°04'0 0.0
2017-Oct-18 05:00N 43°21' W 003°04'0 0.0
2017-Oct-18 04:30N 43°21' W 003°04'0 0.0
2017-Oct-18 04:00N 43°21' W 003°04'0 0.0
2017-Oct-18 03:30N 43°21' W 003°04'0 0.0
2017-Oct-18 03:00N 43°21' W 003°04'0 0.0
2017-Oct-18 02:30N 43°21' W 003°04'0 0.0
2017-Oct-18 02:00N 43°21' W 003°04'0 0.0
2017-Oct-18 01:30N 43°21' W 003°04'0 0.0
2017-Oct-18 01:00N 43°21' W 003°04'0 0.0
2017-Oct-18 00:30N 43°21' W 003°04'0 0.0
2017-Oct-18 00:00N 43°21' W 003°04'0 0.0
2017-Oct-17 23:30N 43°21' W 003°04'0 0.0
2017-Oct-17 23:00N 43°21' W 003°04'0 0.0
2017-Oct-17 22:30N 43°21' W 003°04'0 0.0
2017-Oct-17 22:00N 43°21' W 003°04'0 0.0
2017-Oct-17 21:30N 43°21' W 003°04'0 0.0
2017-Oct-17 21:00N 43°21' W 003°04'0 0.0
2017-Oct-17 20:30N 43°21' W 003°04'0 0.0
2017-Oct-17 20:00N 43°21' W 003°04'0 0.0
2017-Oct-17 19:30N 43°21' W 003°04'0 0.0
2017-Oct-17 19:00N 43°21' W 003°04'0 0.0
2017-Oct-17 18:30N 43°21' W 003°04'0 0.0
2017-Oct-17 18:00N 43°21' W 003°04'0 0.0
2017-Oct-17 17:30N 43°21' W 003°04'0 0.0
2017-Oct-17 16:57N 43°21' W 003°04'0 0.0
2017-Oct-17 16:30N 43°21' W 003°04'0 0.0
2017-Oct-17 16:00N 43°21' W 003°04'0 0.0
2017-Oct-17 15:30N 43°21' W 003°04'0 0.0
2017-Oct-17 15:00N 43°21' W 003°04'0 0.0
2017-Oct-17 14:30N 43°21' W 003°04'0 0.0
2017-Oct-17 14:00N 43°21' W 003°04'0 0.0
2017-Oct-17 13:30N 43°21' W 003°04'0 0.0
2017-Oct-17 13:00N 43°21' W 003°04'0 0.0
2017-Oct-17 12:30N 43°21' W 003°04'0 0.0
2017-Oct-17 12:00N 43°21' W 003°04'0 0.0
2017-Oct-17 11:30N 43°21' W 003°04'0 0.0
2017-Oct-17 11:00N 43°21' W 003°04'0 0.0
2017-Oct-17 10:30N 43°21' W 003°04'0 0.0
2017-Oct-17 10:00N 43°21' W 003°04'0 0.0
2017-Oct-17 09:30N 43°21' W 003°04'0 0.0
2017-Oct-17 08:57N 43°21' W 003°04'0 0.0
2017-Oct-17 08:30N 43°21' W 003°04'0 0.0
2017-Oct-17 08:00N 43°21' W 003°04'0 0.0
2017-Oct-17 07:30N 43°21' W 003°04'0 0.0
2017-Oct-17 07:00N 43°21' W 003°04'0 0.0
2017-Oct-17 06:30N 43°21' W 003°04'0 0.0
2017-Oct-17 06:00N 43°21' W 003°04'0 0.0
2017-Oct-17 05:30N 43°21' W 003°04'0 0.0
2017-Oct-17 05:00N 43°21' W 003°04'0 0.0
2017-Oct-17 04:30N 43°21' W 003°04'0 0.0
2017-Oct-17 04:00N 43°21' W 003°04'0 0.0
2017-Oct-17 03:30N 43°21' W 003°04'0 0.0
2017-Oct-17 03:00N 43°21' W 003°04'0 0.0
2017-Oct-17 02:30N 43°21' W 003°04'0 0.0
2017-Oct-17 02:00N 43°21' W 003°04'0 0.0
2017-Oct-17 01:30N 43°21' W 003°04'0 0.0
2017-Oct-17 01:00N 43°21' W 003°04'0 0.0
2017-Oct-17 00:30N 43°21' W 003°04'0 0.0
2017-Oct-17 00:00N 43°21' W 003°04'0 0.0
2017-Oct-16 23:30N 43°21' W 003°04'0 0.0
2017-Oct-16 23:00N 43°21' W 003°04'0 0.0
2017-Oct-16 22:30N 43°21' W 003°04'0 0.0
2017-Oct-16 22:00N 43°21' W 003°04'0 0.0
2017-Oct-16 21:30N 43°21' W 003°04'0 0.0
2017-Oct-16 21:00N 43°21' W 003°04'0 0.0
2017-Oct-16 20:30N 43°21' W 003°04'0 0.0
2017-Oct-16 20:00N 43°21' W 003°04'0 0.0
2017-Oct-16 19:30N 43°21' W 003°04'0 0.0
2017-Oct-16 19:00N 43°21' W 003°04'0 0.0
2017-Oct-16 18:30N 43°21' W 003°04'0 0.0
2017-Oct-16 17:57N 43°21' W 003°04'0 0.0
2017-Oct-16 17:30N 43°21' W 003°04'0 0.0
2017-Oct-16 17:00N 43°21' W 003°04'0 0.0
2017-Oct-16 16:30N 43°21' W 003°04'0 0.0
2017-Oct-16 16:00N 43°21' W 003°04'0 0.0
2017-Oct-16 15:30N 43°21' W 003°04'0 0.0
2017-Oct-16 15:00N 43°21' W 003°04'0 0.0
2017-Oct-16 14:00N 43°21' W 003°04'0 0.0
2017-Oct-16 13:30N 43°21' W 003°04'0 0.0
2017-Oct-16 13:00N 43°21' W 003°04'0 0.0
2017-Oct-16 12:30N 43°21' W 003°04'0 0.0
2017-Oct-16 12:00N 43°21' W 003°04'0 0.0
2017-Oct-16 11:30N 43°21' W 003°04'0 0.0
2017-Oct-16 11:00N 43°21' W 003°04'0 0.0
2017-Oct-16 10:30N 43°21' W 003°04'0 0.0
2017-Oct-16 10:00N 43°21' W 003°04'0 0.0
2017-Oct-16 09:30N 43°21' W 003°04'0 0.0
2017-Oct-16 09:00N 43°21' W 003°04'0 0.0
2017-Oct-16 08:30N 43°21' W 003°04'0 0.0
2017-Oct-16 08:00N 43°21' W 003°04'0 0.0
2017-Oct-16 07:30N 43°21' W 003°04'0 0.0
2017-Oct-16 07:00N 43°21' W 003°04'0 0.0
2017-Oct-16 06:30N 43°21' W 003°04'0 0.0
2017-Oct-16 06:00N 43°21' W 003°04'0 0.0
2017-Oct-16 05:30N 43°21' W 003°04'0 0.0
2017-Oct-16 05:00N 43°21' W 003°04'0 0.0
2017-Oct-16 04:30N 43°21' W 003°04'0 0.0
2017-Oct-16 04:00N 43°21' W 003°04'0 0.0
2017-Oct-16 03:30N 43°21' W 003°04'0 0.0
2017-Oct-16 03:00N 43°21' W 003°04'  
Track history (hours):
 
Tides and Currents Weather Stations Pressure Air Temp Water Temp Dewpoint Dewpoint Depression Visibility Wind Speed Wind Dir Waves Ship Positions

BBC Nile

Last reported at 2017-Oct-26 02:54 UTC. Time now 2017-Dec-14 06:30 UTC.
Position N 16°52' W 021°21'.
Warning: this ship's position is 49 days out of date.

Length 143 m; draft 8.1 m.

Type: Ship. MMSI: 305682000.

Date/timePositionNaut miles runAvg speedWind from/ knotsBaromVisibWave heightAir tempDewpointWater temp
2017-Oct-26 02:54N 16°52' W 021°21'513.3
2017-Oct-26 02:29N 16°57' W 021°19'713.2
2017-Oct-26 01:59N 17°03' W 021°15'613.2
2017-Oct-26 01:29N 17°09' W 021°12'913.0
2017-Oct-26 00:48N 17°17' W 021°08'413.0
2017-Oct-26 00:29N 17°20' W 021°06'712.9
2017-Oct-25 23:58N 17°26' W 021°03'613.2
2017-Oct-25 23:30N 17°32' W 021°00'713.3
2017-Oct-25 22:59N 17°38' W 020°57'713.2
2017-Oct-25 22:29N 17°44' W 020°54'713.2
2017-Oct-25 21:58N 17°50' W 020°51'613.5
2017-Oct-25 21:30N 17°56' W 020°48'713.6
2017-Oct-25 21:00N 18°02' W 020°44'713.6
2017-Oct-25 20:29N 18°08' W 020°41'713.8
2017-Oct-25 20:00N 18°14' W 020°38'713.6
2017-Oct-25 19:30N 18°20' W 020°35'713.8
2017-Oct-25 18:59N 18°26' W 020°31'713.8
2017-Oct-25 18:30N 18°32' W 020°28'713.7
2017-Oct-25 17:58N 18°39' W 020°25'1013.6
2017-Oct-25 17:12N 18°48' W 020°20'313.6
2017-Oct-25 16:59N 18°51' W 020°19'713.7
2017-Oct-25 16:29N 18°57' W 020°15'713.6
2017-Oct-25 15:59N 19°03' W 020°12'613.6
2017-Oct-25 15:30N 19°09' W 020°09'713.3
2017-Oct-25 15:00N 19°15' W 020°06'713.2
2017-Oct-25 14:29N 19°21' W 020°02'613.3
2017-Oct-25 14:00N 19°26' W 019°59'713.3
2017-Oct-25 13:29N 19°33' W 019°56'713.5
2017-Oct-25 12:59N 19°39' W 019°53'713.5
2017-Oct-25 12:29N 19°44' W 019°49'613.3
2017-Oct-25 12:00N 19°50' W 019°46'713.3
2017-Oct-25 11:28N 19°57' W 019°43'613.5
2017-Oct-25 11:00N 20°02' W 019°40'713.5
2017-Oct-25 10:29N 20°09' W 019°37'713.6
2017-Oct-25 09:59N 20°15' W 019°33'713.7
2017-Oct-25 09:30N 20°20' W 019°30'713.5
2017-Oct-25 08:59N 20°27' W 019°27'713.9
2017-Oct-25 08:30N 20°33' W 019°23'714.1
2017-Oct-25 08:00N 20°39' W 019°20'35413.6
2017-Oct-24 05:59N 25°53' W 016°21'913.9
2017-Oct-24 05:19N 26°01' W 016°16'514.3
2017-Oct-24 04:57N 26°06' W 016°13'814.5
2017-Oct-24 04:26N 26°12' W 016°09'814.6
2017-Oct-24 03:53N 26°19' W 016°05'814.6
2017-Oct-24 03:21N 26°26' W 016°01'814.7
2017-Oct-24 02:50N 26°33' W 015°57'514.7
2017-Oct-24 02:30N 26°37' W 015°54'814.2
2017-Oct-24 01:56N 26°44' W 015°50'614.1
2017-Oct-24 01:29N 26°50' W 015°47'714.1
2017-Oct-24 00:59N 26°56' W 015°43'714.1
2017-Oct-24 00:28N 27°02' W 015°39'814.2
2017-Oct-23 23:53N 27°10' W 015°35'614.0
2017-Oct-23 23:26N 27°15' W 015°31'714.1
2017-Oct-23 22:58N 27°21' W 015°27'2114.0
2017-Oct-23 21:28N 27°39' W 015°16'714.7
2017-Oct-23 21:00N 27°46' W 015°13'714.3
2017-Oct-23 20:30N 27°52' W 015°10'713.6
2017-Oct-23 20:00N 27°59' W 015°13'713.6
2017-Oct-23 19:31N 28°05' W 015°17'612.3
2017-Oct-23 19:00N 28°09' W 015°22'2 3.0
2017-Oct-23 18:20N 28°09' W 015°24'0 0.1
2017-Oct-23 17:50N 28°09' W 015°24'0 0.0
2017-Oct-23 17:23N 28°09' W 015°24'0 0.0
2017-Oct-23 16:53N 28°09' W 015°24'0 0.0
2017-Oct-23 16:20N 28°09' W 015°24'0 0.1
2017-Oct-23 15:53N 28°09' W 015°24'0 0.0
2017-Oct-23 15:23N 28°09' W 015°24'0 0.0
2017-Oct-23 14:53N 28°09' W 015°24'0 0.0
2017-Oct-23 14:26N 28°09' W 015°24'0 0.0
2017-Oct-23 13:56N 28°09' W 015°24'0 0.0
2017-Oct-23 13:26N 28°09' W 015°24'0 0.0
2017-Oct-23 12:56N 28°09' W 015°24'0 0.0
2017-Oct-23 12:26N 28°09' W 015°24'0 0.0
2017-Oct-23 11:59N 28°09' W 015°24'0 0.0
2017-Oct-23 11:29N 28°09' W 015°24'0 0.0
2017-Oct-23 10:59N 28°09' W 015°24'0 0.0
2017-Oct-23 10:29N 28°09' W 015°24'0 0.0
2017-Oct-23 09:59N 28°09' W 015°24'0 0.0
2017-Oct-23 09:26N 28°09' W 015°24'0 0.0
2017-Oct-23 08:59N 28°09' W 015°24'0 0.0
2017-Oct-23 08:29N 28°09' W 015°24'0 0.0
2017-Oct-23 07:59N 28°09' W 015°24'0 0.0
2017-Oct-23 07:29N 28°09' W 015°24'0 0.0
2017-Oct-23 06:59N 28°09' W 015°24'0 0.0
2017-Oct-23 06:29N 28°09' W 015°24'0 0.0
2017-Oct-23 05:59N 28°09' W 015°24'0 0.0
2017-Oct-23 05:29N 28°09' W 015°24'0 0.0
2017-Oct-23 04:50N 28°09' W 015°24'0 0.0
2017-Oct-23 04:20N 28°09' W 015°24'0 0.0
2017-Oct-23 03:50N 28°09' W 015°24'0 0.0
2017-Oct-23 03:23N 28°09' W 015°24'0 0.0
2017-Oct-23 02:53N 28°09' W 015°24'0 0.0
2017-Oct-23 02:23N 28°09' W 015°24'0 0.0
2017-Oct-23 01:53N 28°09' W 015°24'0 0.0
2017-Oct-23 01:23N 28°09' W 015°24'0 0.0
2017-Oct-23 00:41N 28°09' W 015°24'0 0.0
2017-Oct-23 00:26N 28°09' W 015°24'0 0.0
2017-Oct-22 23:56N 28°09' W 015°24'0 0.0
2017-Oct-22 23:26N 28°09' W 015°24'0 0.0
2017-Oct-22 22:56N 28°09' W 015°24'0 0.0
2017-Oct-22 22:26N 28°09' W 015°24'0 0.0
2017-Oct-22 21:59N 28°09' W 015°24'0 0.0
2017-Oct-22 21:29N 28°09' W 015°24'0 0.0
2017-Oct-22 20:59N 28°09' W 015°24'0 0.0
2017-Oct-22 20:29N 28°09' W 015°24'0 0.0
2017-Oct-22 19:59N 28°09' W 015°24'0 0.0
2017-Oct-22 19:29N 28°09' W 015°24'0 0.6
2017-Oct-22 19:00N 28°09' W 015°24'3 5.1
2017-Oct-22 18:30N 28°10' W 015°21'713.4
2017-Oct-22 18:00N 28°15' W 015°17'713.5
2017-Oct-22 17:30N 28°21' W 015°12'713.1
2017-Oct-22 17:00N 28°26' W 015°08'612.7
2017-Oct-22 16:30N 28°31' W 015°04'612.6
2017-Oct-22 16:00N 28°37' W 015°00'613.0
2017-Oct-22 15:31N 28°42' W 014°56'713.1
2017-Oct-22 15:00N 28°47' W 014°52'  
2017-Oct-19 06:32N 43°48' W 006°28'413.4
2017-Oct-19 06:16N 43°48' W 006°23'413.5
2017-Oct-19 05:59N 43°48' W 006°18'713.7
2017-Oct-19 05:30N 43°47' W 006°09'713.7
2017-Oct-19 05:00N 43°46' W 005°59'713.8
2017-Oct-19 04:29N 43°45' W 005°49'713.9
2017-Oct-19 04:00N 43°45' W 005°40'713.7
2017-Oct-19 03:31N 43°44' W 005°31'713.1
2017-Oct-19 03:00N 43°44' W 005°22'713.4
2017-Oct-19 02:30N 43°43' W 005°13'813.2
2017-Oct-19 01:56N 43°42' W 005°02'613.0
2017-Oct-19 01:29N 43°41' W 004°54'2712.8
2017-Oct-18 23:22N 43°38' W 004°17'513.2
2017-Oct-18 23:01N 43°37' W 004°10'713.7
2017-Oct-18 22:31N 43°36' W 004°01'713.8
2017-Oct-18 22:00N 43°36' W 003°51'713.4
2017-Oct-18 21:30N 43°35' W 003°42'713.6
2017-Oct-18 21:00N 43°34' W 003°33'713.6
2017-Oct-18 20:30N 43°33' W 003°24'713.2
2017-Oct-18 20:00N 43°30' W 003°16'713.0
2017-Oct-18 19:30N 43°26' W 003°08'611.1
2017-Oct-18 19:00N 43°22' W 003°03'1 2.0
2017-Oct-18 18:30N 43°21' W 003°04'0 0.0
2017-Oct-18 18:00N 43°21' W 003°04'0 0.0
2017-Oct-18 17:30N 43°21' W 003°04'0 0.0
2017-Oct-18 17:00N 43°21' W 003°04'0 0.0
2017-Oct-18 16:30N 43°21' W 003°04'0 0.0
2017-Oct-18 16:00N 43°21' W 003°04'0 0.0
2017-Oct-18 15:30N 43°21' W 003°04'0 0.0
2017-Oct-18 15:00N 43°21' W 003°04'0 0.0
2017-Oct-18 14:00N 43°21' W 003°04'0 0.0
2017-Oct-18 13:30N 43°21' W 003°04'0 0.0
2017-Oct-18 13:00N 43°21' W 003°04'0 0.0
2017-Oct-18 12:30N 43°21' W 003°04'0 0.0
2017-Oct-18 12:00N 43°21' W 003°04'0 0.0
2017-Oct-18 11:30N 43°21' W 003°04'0 0.0
2017-Oct-18 11:00N 43°21' W 003°04'0 0.0
2017-Oct-18 10:30N 43°21' W 003°04'0 0.0
2017-Oct-18 10:00N 43°21' W 003°04'0 0.0
2017-Oct-18 09:30N 43°21' W 003°04'0 0.0
2017-Oct-18 09:00N 43°21' W 003°04'0 0.0
2017-Oct-18 08:30N 43°21' W 003°04'0 0.0
2017-Oct-18 08:00N 43°21' W 003°04'0 0.0
2017-Oct-18 07:30N 43°21' W 003°04'0 0.0
2017-Oct-18 07:00N 43°21' W 003°04'0 0.0
2017-Oct-18 06:30N 43°21' W 003°04'0 0.0
2017-Oct-18 06:00N 43°21' W 003°04'0 0.0
2017-Oct-18 05:30N 43°21' W 003°04'0 0.0
2017-Oct-18 05:00N 43°21' W 003°04'0 0.0
2017-Oct-18 04:30N 43°21' W 003°04'0 0.0
2017-Oct-18 04:00N 43°21' W 003°04'0 0.0
2017-Oct-18 03:30N 43°21' W 003°04'0 0.0
2017-Oct-18 03:00N 43°21' W 003°04'0 0.0
2017-Oct-18 02:30N 43°21' W 003°04'0 0.0
2017-Oct-18 02:00N 43°21' W 003°04'0 0.0
2017-Oct-18 01:30N 43°21' W 003°04'0 0.0
2017-Oct-18 01:00N 43°21' W 003°04'0 0.0
2017-Oct-18 00:30N 43°21' W 003°04'0 0.0
2017-Oct-18 00:00N 43°21' W 003°04'0 0.0
2017-Oct-17 23:30N 43°21' W 003°04'0 0.0
2017-Oct-17 23:00N 43°21' W 003°04'0 0.0
2017-Oct-17 22:30N 43°21' W 003°04'0 0.0
2017-Oct-17 22:00N 43°21' W 003°04'0 0.0
2017-Oct-17 21:30N 43°21' W 003°04'0 0.0
2017-Oct-17 21:00N 43°21' W 003°04'0 0.0
2017-Oct-17 20:30N 43°21' W 003°04'0 0.0
2017-Oct-17 20:00N 43°21' W 003°04'0 0.0
2017-Oct-17 19:30N 43°21' W 003°04'0 0.0
2017-Oct-17 19:00N 43°21' W 003°04'0 0.0
2017-Oct-17 18:30N 43°21' W 003°04'0 0.0
2017-Oct-17 18:00N 43°21' W 003°04'0 0.0
2017-Oct-17 17:30N 43°21' W 003°04'0 0.0
2017-Oct-17 16:57N 43°21' W 003°04'0 0.0
2017-Oct-17 16:30N 43°21' W 003°04'0 0.0
2017-Oct-17 16:00N 43°21' W 003°04'0 0.0
2017-Oct-17 15:30N 43°21' W 003°04'0 0.0
2017-Oct-17 15:00N 43°21' W 003°04'0 0.0
2017-Oct-17 14:30N 43°21' W 003°04'0 0.0
2017-Oct-17 14:00N 43°21' W 003°04'0 0.0
2017-Oct-17 13:30N 43°21' W 003°04'0 0.0
2017-Oct-17 13:00N 43°21' W 003°04'0 0.0
2017-Oct-17 12:30N 43°21' W 003°04'0 0.0
2017-Oct-17 12:00N 43°21' W 003°04'0 0.0
2017-Oct-17 11:30N 43°21' W 003°04'0 0.0
2017-Oct-17 11:00N 43°21' W 003°04'0 0.0
2017-Oct-17 10:30N 43°21' W 003°04'0 0.0
2017-Oct-17 10:00N 43°21' W 003°04'0 0.0
2017-Oct-17 09:30N 43°21' W 003°04'0 0.0
2017-Oct-17 08:57N 43°21' W 003°04'0 0.0
2017-Oct-17 08:30N 43°21' W 003°04'0 0.0
2017-Oct-17 08:00N 43°21' W 003°04'0 0.0
2017-Oct-17 07:30N 43°21' W 003°04'0 0.0
2017-Oct-17 07:00N 43°21' W 003°04'0 0.0
2017-Oct-17 06:30N 43°21' W 003°04'0 0.0
2017-Oct-17 06:00N 43°21' W 003°04'0 0.0
2017-Oct-17 05:30N 43°21' W 003°04'0 0.0
2017-Oct-17 05:00N 43°21' W 003°04'0 0.0
2017-Oct-17 04:30N 43°21' W 003°04'0 0.0
2017-Oct-17 04:00N 43°21' W 003°04'0 0.0
2017-Oct-17 03:30N 43°21' W 003°04'0 0.0
2017-Oct-17 03:00N 43°21' W 003°04'0 0.0
2017-Oct-17 02:30N 43°21' W 003°04'0 0.0
2017-Oct-17 02:00N 43°21' W 003°04'0 0.0
2017-Oct-17 01:30N 43°21' W 003°04'0 0.0
2017-Oct-17 01:00N 43°21' W 003°04'0 0.0
2017-Oct-17 00:30N 43°21' W 003°04'0 0.0
2017-Oct-17 00:00N 43°21' W 003°04'0 0.0
2017-Oct-16 23:30N 43°21' W 003°04'0 0.0
2017-Oct-16 23:00N 43°21' W 003°04'0 0.0
2017-Oct-16 22:30N 43°21' W 003°04'0 0.0
2017-Oct-16 22:00N 43°21' W 003°04'0 0.0
2017-Oct-16 21:30N 43°21' W 003°04'0 0.0
2017-Oct-16 21:00N 43°21' W 003°04'0 0.0
2017-Oct-16 20:30N 43°21' W 003°04'0 0.0
2017-Oct-16 20:00N 43°21' W 003°04'0 0.0
2017-Oct-16 19:30N 43°21' W 003°04'0 0.0
2017-Oct-16 19:00N 43°21' W 003°04'0 0.0
2017-Oct-16 18:30N 43°21' W 003°04'0 0.0
2017-Oct-16 17:57N 43°21' W 003°04'0 0.0
2017-Oct-16 17:30N 43°21' W 003°04'0 0.0
2017-Oct-16 17:00N 43°21' W 003°04'0 0.0
2017-Oct-16 16:30N 43°21' W 003°04'0 0.0
2017-Oct-16 16:00N 43°21' W 003°04'0 0.0
2017-Oct-16 15:30N 43°21' W 003°04'0 0.0
2017-Oct-16 15:00N 43°21' W 003°04'0 0.0
2017-Oct-16 14:00N 43°21' W 003°04'0 0.0
2017-Oct-16 13:30N 43°21' W 003°04'0 0.0
2017-Oct-16 13:00N 43°21' W 003°04'0 0.0
2017-Oct-16 12:30N 43°21' W 003°04'0 0.0
2017-Oct-16 12:00N 43°21' W 003°04'0 0.0
2017-Oct-16 11:30N 43°21' W 003°04'0 0.0
2017-Oct-16 11:00N 43°21' W 003°04'0 0.0
2017-Oct-16 10:30N 43°21' W 003°04'0 0.0
2017-Oct-16 10:00N 43°21' W 003°04'0 0.0
2017-Oct-16 09:30N 43°21' W 003°04'0 0.0
2017-Oct-16 09:00N 43°21' W 003°04'0 0.0
2017-Oct-16 08:30N 43°21' W 003°04'0 0.0
2017-Oct-16 08:00N 43°21' W 003°04'0 0.0
2017-Oct-16 07:30N 43°21' W 003°04'0 0.0
2017-Oct-16 07:00N 43°21' W 003°04'0 0.0
2017-Oct-16 06:30N 43°21' W 003°04'0 0.0
2017-Oct-16 06:00N 43°21' W 003°04'0 0.0
2017-Oct-16 05:30N 43°21' W 003°04'0 0.0
2017-Oct-16 05:00N 43°21' W 003°04'0 0.0
2017-Oct-16 04:30N 43°21' W 003°04'0 0.0
2017-Oct-16 04:00N 43°21' W 003°04'0 0.0
2017-Oct-16 03:30N 43°21' W 003°04'0 0.0
2017-Oct-16 03:00N 43°21' W 003°04'  

Dump ship's entire track history